sensor_id;sensor_type;location;lat;lon;timestamp;P1;durP1;ratioP1;P2;durP2;ratioP2
44728;SDS011;30457;53.590;9.922;2023-04-25T00:01:06;3.50;;;1.67;;
44728;SDS011;30457;53.590;9.922;2023-04-25T00:05:31;3.05;;;1.98;;
44728;SDS011;30457;53.590;9.922;2023-04-25T00:09:57;7.13;;;2.25;;
44728;SDS011;30457;53.590;9.922;2023-04-25T00:14:23;9.50;;;3.85;;
44728;SDS011;30457;53.590;9.922;2023-04-25T00:18:49;11.15;;;3.03;;
44728;SDS011;30457;53.590;9.922;2023-04-25T00:23:18;6.88;;;2.35;;
44728;SDS011;30457;53.590;9.922;2023-04-25T00:27:44;6.25;;;2.08;;
44728;SDS011;30457;53.590;9.922;2023-04-25T00:32:09;8.50;;;2.97;;
44728;SDS011;30457;53.590;9.922;2023-04-25T00:36:35;13.18;;;2.90;;
44728;SDS011;30457;53.590;9.922;2023-04-25T00:41:01;13.65;;;2.75;;
44728;SDS011;30457;53.590;9.922;2023-04-25T00:45:27;12.88;;;2.60;;
44728;SDS011;30457;53.590;9.922;2023-04-25T00:49:56;14.93;;;2.40;;
44728;SDS011;30457;53.590;9.922;2023-04-25T00:54:22;7.22;;;1.98;;
44728;SDS011;30457;53.590;9.922;2023-04-25T00:58:48;10.40;;;2.78;;
44728;SDS011;30457;53.590;9.922;2023-04-25T01:03:15;9.95;;;2.97;;
44728;SDS011;30457;53.590;9.922;2023-04-25T01:07:42;12.65;;;2.47;;
44728;SDS011;30457;53.590;9.922;2023-04-25T01:12:08;10.02;;;2.42;;
44728;SDS011;30457;53.590;9.922;2023-04-25T01:16:33;13.38;;;2.33;;
44728;SDS011;30457;53.590;9.922;2023-04-25T01:21:10;15.13;;;3.25;;
44728;SDS011;30457;53.590;9.922;2023-04-25T01:25:37;19.70;;;2.80;;
44728;SDS011;30457;53.590;9.922;2023-04-25T01:30:03;10.88;;;2.70;;
44728;SDS011;30457;53.590;9.922;2023-04-25T01:34:31;15.45;;;2.90;;
44728;SDS011;30457;53.590;9.922;2023-04-25T01:38:57;20.45;;;3.83;;
44728;SDS011;30457;53.590;9.922;2023-04-25T01:43:22;15.25;;;2.88;;
44728;SDS011;30457;53.590;9.922;2023-04-25T01:47:48;10.80;;;2.90;;
44728;SDS011;30457;53.590;9.922;2023-04-25T01:52:15;13.50;;;2.90;;
44728;SDS011;30457;53.590;9.922;2023-04-25T01:56:40;20.52;;;4.22;;
44728;SDS011;30457;53.590;9.922;2023-04-25T02:01:09;10.27;;;2.95;;
44728;SDS011;30457;53.590;9.922;2023-04-25T02:05:41;12.68;;;3.10;;
44728;SDS011;30457;53.590;9.922;2023-04-25T02:10:10;12.55;;;2.90;;
44728;SDS011;30457;53.590;9.922;2023-04-25T02:14:49;18.25;;;2.95;;
44728;SDS011;30457;53.590;9.922;2023-04-25T02:19:23;14.52;;;2.85;;
44728;SDS011;30457;53.590;9.922;2023-04-25T02:23:48;9.52;;;2.10;;
44728;SDS011;30457;53.590;9.922;2023-04-25T02:28:16;16.35;;;2.85;;
44728;SDS011;30457;53.590;9.922;2023-04-25T02:32:42;13.90;;;2.60;;
44728;SDS011;30457;53.590;9.922;2023-04-25T02:37:08;10.10;;;2.38;;
44728;SDS011;30457;53.590;9.922;2023-04-25T02:41:33;18.40;;;3.60;;
44728;SDS011;30457;53.590;9.922;2023-04-25T02:45:59;14.73;;;2.78;;
44728;SDS011;30457;53.590;9.922;2023-04-25T02:50:25;11.35;;;2.80;;
44728;SDS011;30457;53.590;9.922;2023-04-25T02:54:50;11.07;;;3.22;;
44728;SDS011;30457;53.590;9.922;2023-04-25T02:59:16;19.90;;;2.72;;
44728;SDS011;30457;53.590;9.922;2023-04-25T03:03:42;9.40;;;2.40;;
44728;SDS011;30457;53.590;9.922;2023-04-25T03:08:07;12.02;;;1.88;;
44728;SDS011;30457;53.590;9.922;2023-04-25T03:12:36;15.27;;;2.70;;
44728;SDS011;30457;53.590;9.922;2023-04-25T03:17:03;16.23;;;2.00;;
44728;SDS011;30457;53.590;9.922;2023-04-25T03:21:29;10.43;;;3.17;;
44728;SDS011;30457;53.590;9.922;2023-04-25T03:25:57;11.30;;;3.22;;
44728;SDS011;30457;53.590;9.922;2023-04-25T03:30:22;9.63;;;2.33;;
44728;SDS011;30457;53.590;9.922;2023-04-25T03:34:48;8.13;;;2.13;;
44728;SDS011;30457;53.590;9.922;2023-04-25T03:39:13;8.93;;;2.15;;
44728;SDS011;30457;53.590;9.922;2023-04-25T03:43:44;17.85;;;2.60;;
44728;SDS011;30457;53.590;9.922;2023-04-25T03:48:12;7.13;;;2.28;;
44728;SDS011;30457;53.590;9.922;2023-04-25T03:52:37;8.48;;;2.08;;
44728;SDS011;30457;53.590;9.922;2023-04-25T03:57:03;9.05;;;2.20;;
44728;SDS011;30457;53.590;9.922;2023-04-25T04:01:32;8.05;;;1.90;;
44728;SDS011;30457;53.590;9.922;2023-04-25T04:05:58;9.63;;;1.95;;
44728;SDS011;30457;53.590;9.922;2023-04-25T04:10:24;10.23;;;2.00;;
44728;SDS011;30457;53.590;9.922;2023-04-25T04:14:51;8.68;;;1.67;;
44728;SDS011;30457;53.590;9.922;2023-04-25T04:19:16;10.45;;;1.60;;
44728;SDS011;30457;53.590;9.922;2023-04-25T04:23:52;6.28;;;1.80;;
44728;SDS011;30457;53.590;9.922;2023-04-25T04:28:20;12.73;;;2.40;;
44728;SDS011;30457;53.590;9.922;2023-04-25T04:33:04;9.13;;;2.13;;
44728;SDS011;30457;53.590;9.922;2023-04-25T04:37:30;7.63;;;2.00;;
44728;SDS011;30457;53.590;9.922;2023-04-25T04:41:57;7.63;;;2.13;;
44728;SDS011;30457;53.590;9.922;2023-04-25T04:46:40;9.07;;;2.30;;
44728;SDS011;30457;53.590;9.922;2023-04-25T04:51:28;14.18;;;2.65;;
44728;SDS011;30457;53.590;9.922;2023-04-25T04:56:33;13.25;;;2.15;;
44728;SDS011;30457;53.590;9.922;2023-04-25T05:01:16;19.63;;;2.15;;
44728;SDS011;30457;53.590;9.922;2023-04-25T05:06:13;9.32;;;1.67;;
44728;SDS011;30457;53.590;9.922;2023-04-25T05:11:06;6.97;;;1.88;;
44728;SDS011;30457;53.590;9.922;2023-04-25T05:15:41;12.15;;;2.10;;
44728;SDS011;30457;53.590;9.922;2023-04-25T05:20:21;12.82;;;1.98;;
44728;SDS011;30457;53.590;9.922;2023-04-25T05:25:04;19.42;;;2.70;;
44728;SDS011;30457;53.590;9.922;2023-04-25T05:29:50;9.50;;;2.45;;
44728;SDS011;30457;53.590;9.922;2023-04-25T05:34:24;12.00;;;2.10;;
44728;SDS011;30457;53.590;9.922;2023-04-25T05:39:02;14.50;;;2.60;;
44728;SDS011;30457;53.590;9.922;2023-04-25T05:43:47;8.48;;;2.17;;
44728;SDS011;30457;53.590;9.922;2023-04-25T05:48:40;18.92;;;4.65;;
44728;SDS011;30457;53.590;9.922;2023-04-25T05:53:25;3.75;;;1.38;;
44728;SDS011;30457;53.590;9.922;2023-04-25T05:57:59;5.53;;;1.63;;
44728;SDS011;30457;53.590;9.922;2023-04-25T06:02:25;11.32;;;4.28;;
44728;SDS011;30457;53.590;9.922;2023-04-25T06:06:52;3.92;;;1.98;;
44728;SDS011;30457;53.590;9.922;2023-04-25T06:11:18;5.53;;;1.50;;
44728;SDS011;30457;53.590;9.922;2023-04-25T06:15:44;6.07;;;1.35;;
44728;SDS011;30457;53.590;9.922;2023-04-25T06:20:10;4.97;;;1.60;;
44728;SDS011;30457;53.590;9.922;2023-04-25T06:24:36;7.93;;;1.73;;
44728;SDS011;30457;53.590;9.922;2023-04-25T06:29:03;6.22;;;1.70;;
44728;SDS011;30457;53.590;9.922;2023-04-25T06:33:29;8.23;;;1.52;;
44728;SDS011;30457;53.590;9.922;2023-04-25T06:37:55;6.45;;;1.65;;
44728;SDS011;30457;53.590;9.922;2023-04-25T06:42:22;13.55;;;2.33;;
44728;SDS011;30457;53.590;9.922;2023-04-25T06:46:51;5.72;;;1.73;;
44728;SDS011;30457;53.590;9.922;2023-04-25T06:51:18;9.07;;;1.92;;
44728;SDS011;30457;53.590;9.922;2023-04-25T06:55:44;11.00;;;2.17;;
44728;SDS011;30457;53.590;9.922;2023-04-25T07:00:17;7.15;;;1.65;;
44728;SDS011;30457;53.590;9.922;2023-04-25T07:04:43;8.85;;;2.47;;
44728;SDS011;30457;53.590;9.922;2023-04-25T07:09:10;10.82;;;2.15;;
44728;SDS011;30457;53.590;9.922;2023-04-25T07:13:36;9.43;;;2.13;;
44728;SDS011;30457;53.590;9.922;2023-04-25T07:18:01;4.93;;;1.60;;
44728;SDS011;30457;53.590;9.922;2023-04-25T07:22:27;7.05;;;1.48;;
44728;SDS011;30457;53.590;9.922;2023-04-25T07:26:53;11.70;;;1.40;;
44728;SDS011;30457;53.590;9.922;2023-04-25T07:31:26;13.82;;;2.50;;
44728;SDS011;30457;53.590;9.922;2023-04-25T07:35:52;7.55;;;1.25;;
44728;SDS011;30457;53.590;9.922;2023-04-25T07:40:18;8.77;;;1.45;;
44728;SDS011;30457;53.590;9.922;2023-04-25T07:44:48;4.18;;;1.00;;
44728;SDS011;30457;53.590;9.922;2023-04-25T07:49:16;6.13;;;1.42;;
44728;SDS011;30457;53.590;9.922;2023-04-25T07:53:43;7.38;;;1.98;;
44728;SDS011;30457;53.590;9.922;2023-04-25T07:58:12;6.60;;;1.40;;
44728;SDS011;30457;53.590;9.922;2023-04-25T08:02:40;8.05;;;1.85;;
44728;SDS011;30457;53.590;9.922;2023-04-25T08:07:11;10.82;;;1.30;;
44728;SDS011;30457;53.590;9.922;2023-04-25T08:11:52;6.22;;;2.00;;
44728;SDS011;30457;53.590;9.922;2023-04-25T08:16:24;6.00;;;1.30;;
44728;SDS011;30457;53.590;9.922;2023-04-25T08:20:50;10.57;;;2.13;;
44728;SDS011;30457;53.590;9.922;2023-04-25T08:25:16;6.20;;;1.00;;
44728;SDS011;30457;53.590;9.922;2023-04-25T08:29:42;11.23;;;2.53;;
44728;SDS011;30457;53.590;9.922;2023-04-25T08:34:08;4.90;;;1.20;;
44728;SDS011;30457;53.590;9.922;2023-04-25T08:38:42;9.35;;;2.13;;
44728;SDS011;30457;53.590;9.922;2023-04-25T08:43:13;8.38;;;3.03;;
44728;SDS011;30457;53.590;9.922;2023-04-25T08:47:40;7.70;;;1.20;;
44728;SDS011;30457;53.590;9.922;2023-04-25T08:52:07;5.10;;;0.90;;
44728;SDS011;30457;53.590;9.922;2023-04-25T08:56:37;9.25;;;1.20;;
44728;SDS011;30457;53.590;9.922;2023-04-25T09:01:04;6.88;;;0.93;;
44728;SDS011;30457;53.590;9.922;2023-04-25T09:05:36;8.20;;;1.08;;
44728;SDS011;30457;53.590;9.922;2023-04-25T09:10:02;5.20;;;1.20;;
44728;SDS011;30457;53.590;9.922;2023-04-25T09:14:30;7.80;;;1.20;;
44728;SDS011;30457;53.590;9.922;2023-04-25T09:19:28;3.22;;;1.00;;
44728;SDS011;30457;53.590;9.922;2023-04-25T09:23:55;8.77;;;1.38;;
44728;SDS011;30457;53.590;9.922;2023-04-25T09:28:24;3.10;;;0.77;;
44728;SDS011;30457;53.590;9.922;2023-04-25T09:32:56;5.88;;;1.30;;
44728;SDS011;30457;53.590;9.922;2023-04-25T09:37:24;7.50;;;0.93;;
44728;SDS011;30457;53.590;9.922;2023-04-25T09:42:23;5.93;;;1.33;;
44728;SDS011;30457;53.590;9.922;2023-04-25T09:46:50;3.72;;;0.93;;
44728;SDS011;30457;53.590;9.922;2023-04-25T09:51:24;7.15;;;1.23;;
44728;SDS011;30457;53.590;9.922;2023-04-25T09:55:51;6.22;;;1.30;;
44728;SDS011;30457;53.590;9.922;2023-04-25T10:00:17;8.38;;;1.20;;
44728;SDS011;30457;53.590;9.922;2023-04-25T10:04:44;2.80;;;0.90;;
44728;SDS011;30457;53.590;9.922;2023-04-25T10:09:21;6.90;;;1.05;;
44728;SDS011;30457;53.590;9.922;2023-04-25T10:13:51;3.55;;;0.80;;
44728;SDS011;30457;53.590;9.922;2023-04-25T10:18:17;4.68;;;1.50;;
44728;SDS011;30457;53.590;9.922;2023-04-25T10:22:45;2.10;;;0.82;;
44728;SDS011;30457;53.590;9.922;2023-04-25T10:27:13;2.90;;;0.93;;
44728;SDS011;30457;53.590;9.922;2023-04-25T10:31:44;4.80;;;1.63;;
44728;SDS011;30457;53.590;9.922;2023-04-25T10:36:15;6.30;;;1.40;;
44728;SDS011;30457;53.590;9.922;2023-04-25T10:41:02;4.15;;;1.08;;
44728;SDS011;30457;53.590;9.922;2023-04-25T10:45:29;7.32;;;1.33;;
44728;SDS011;30457;53.590;9.922;2023-04-25T10:49:55;5.78;;;1.30;;
44728;SDS011;30457;53.590;9.922;2023-04-25T10:54:30;10.48;;;1.33;;
44728;SDS011;30457;53.590;9.922;2023-04-25T10:59:11;7.80;;;1.33;;
44728;SDS011;30457;53.590;9.922;2023-04-25T11:03:44;3.35;;;1.30;;
44728;SDS011;30457;53.590;9.922;2023-04-25T11:08:11;8.77;;;1.20;;
44728;SDS011;30457;53.590;9.922;2023-04-25T11:12:36;4.68;;;1.08;;
44728;SDS011;30457;53.590;9.922;2023-04-25T11:17:02;4.88;;;1.10;;
44728;SDS011;30457;53.590;9.922;2023-04-25T11:21:28;7.40;;;1.40;;
44728;SDS011;30457;53.590;9.922;2023-04-25T11:25:56;3.15;;;1.00;;
44728;SDS011;30457;53.590;9.922;2023-04-25T11:30:22;2.25;;;1.10;;
44728;SDS011;30457;53.590;9.922;2023-04-25T11:34:49;4.57;;;0.90;;
44728;SDS011;30457;53.590;9.922;2023-04-25T11:39:14;4.22;;;1.33;;
44728;SDS011;30457;53.590;9.922;2023-04-25T11:43:40;6.30;;;1.52;;
44728;SDS011;30457;53.590;9.922;2023-04-25T11:48:08;3.70;;;1.02;;
44728;SDS011;30457;53.590;9.922;2023-04-25T11:52:37;4.57;;;0.90;;
44728;SDS011;30457;53.590;9.922;2023-04-25T11:57:04;4.60;;;0.90;;
44728;SDS011;30457;53.590;9.922;2023-04-25T12:01:30;3.42;;;0.80;;
44728;SDS011;30457;53.590;9.922;2023-04-25T12:06:01;2.25;;;0.80;;
44728;SDS011;30457;53.590;9.922;2023-04-25T12:10:28;2.53;;;0.60;;
44728;SDS011;30457;53.590;9.922;2023-04-25T12:14:54;3.60;;;0.60;;
44728;SDS011;30457;53.590;9.922;2023-04-25T12:19:20;7.82;;;2.33;;
44728;SDS011;30457;53.590;9.922;2023-04-25T12:23:46;3.47;;;1.33;;
44728;SDS011;30457;53.590;9.922;2023-04-25T12:28:12;3.47;;;0.77;;
44728;SDS011;30457;53.590;9.922;2023-04-25T12:32:45;3.35;;;0.73;;
44728;SDS011;30457;53.590;9.922;2023-04-25T12:37:12;1.55;;;0.50;;
44728;SDS011;30457;53.590;9.922;2023-04-25T12:41:38;3.33;;;1.10;;
44728;SDS011;30457;53.590;9.922;2023-04-25T12:46:03;2.40;;;0.80;;
44728;SDS011;30457;53.590;9.922;2023-04-25T12:50:29;3.70;;;1.42;;
44728;SDS011;30457;53.590;9.922;2023-04-25T12:54:55;1.98;;;0.68;;
44728;SDS011;30457;53.590;9.922;2023-04-25T12:59:20;5.82;;;0.90;;
44728;SDS011;30457;53.590;9.922;2023-04-25T13:03:46;3.90;;;0.82;;
44728;SDS011;30457;53.590;9.922;2023-04-25T13:08:13;2.25;;;0.70;;
44728;SDS011;30457;53.590;9.922;2023-04-25T13:12:38;2.10;;;0.73;;
44728;SDS011;30457;53.590;9.922;2023-04-25T13:17:04;2.95;;;0.82;;
44728;SDS011;30457;53.590;9.922;2023-04-25T13:21:30;3.00;;;1.00;;
44728;SDS011;30457;53.590;9.922;2023-04-25T13:25:57;3.45;;;0.57;;
44728;SDS011;30457;53.590;9.922;2023-04-25T13:30:23;3.20;;;1.25;;
44728;SDS011;30457;53.590;9.922;2023-04-25T13:34:48;5.15;;;2.47;;
44728;SDS011;30457;53.590;9.922;2023-04-25T13:39:16;3.25;;;1.08;;
44728;SDS011;30457;53.590;9.922;2023-04-25T13:43:41;5.07;;;1.60;;
44728;SDS011;30457;53.590;9.922;2023-04-25T13:48:07;4.97;;;1.17;;
44728;SDS011;30457;53.590;9.922;2023-04-25T13:52:32;3.45;;;1.20;;
44728;SDS011;30457;53.590;9.922;2023-04-25T13:56:58;2.60;;;1.30;;
44728;SDS011;30457;53.590;9.922;2023-04-25T14:01:24;4.30;;;1.20;;
44728;SDS011;30457;53.590;9.922;2023-04-25T14:05:49;4.13;;;1.10;;
44728;SDS011;30457;53.590;9.922;2023-04-25T14:10:15;2.75;;;0.90;;
44728;SDS011;30457;53.590;9.922;2023-04-25T14:14:41;3.35;;;0.85;;
44728;SDS011;30457;53.590;9.922;2023-04-25T14:19:07;9.15;;;2.08;;
44728;SDS011;30457;53.590;9.922;2023-04-25T14:23:32;3.75;;;1.65;;
44728;SDS011;30457;53.590;9.922;2023-04-25T14:27:58;2.95;;;1.17;;
44728;SDS011;30457;53.590;9.922;2023-04-25T14:32:23;3.47;;;0.98;;
44728;SDS011;30457;53.590;9.922;2023-04-25T14:36:49;2.00;;;0.73;;
44728;SDS011;30457;53.590;9.922;2023-04-25T14:41:15;4.88;;;1.20;;
44728;SDS011;30457;53.590;9.922;2023-04-25T14:45:40;1.90;;;0.70;;
44728;SDS011;30457;53.590;9.922;2023-04-25T14:50:06;3.38;;;1.65;;
44728;SDS011;30457;53.590;9.922;2023-04-25T14:54:32;4.97;;;1.35;;
44728;SDS011;30457;53.590;9.922;2023-04-25T14:58:58;12.38;;;1.00;;
44728;SDS011;30457;53.590;9.922;2023-04-25T15:03:23;3.47;;;1.40;;
44728;SDS011;30457;53.590;9.922;2023-04-25T15:07:49;5.35;;;1.10;;
44728;SDS011;30457;53.590;9.922;2023-04-25T15:12:15;5.05;;;1.08;;
44728;SDS011;30457;53.590;9.922;2023-04-25T15:16:40;5.38;;;1.27;;
44728;SDS011;30457;53.590;9.922;2023-04-25T15:21:06;9.75;;;2.22;;
44728;SDS011;30457;53.590;9.922;2023-04-25T15:25:32;8.30;;;1.35;;
44728;SDS011;30457;53.590;9.922;2023-04-25T15:29:58;4.43;;;1.30;;
44728;SDS011;30457;53.590;9.922;2023-04-25T15:34:23;8.10;;;1.27;;
44728;SDS011;30457;53.590;9.922;2023-04-25T15:38:49;4.93;;;0.88;;
44728;SDS011;30457;53.590;9.922;2023-04-25T15:43:14;5.35;;;1.60;;
44728;SDS011;30457;53.590;9.922;2023-04-25T15:47:41;7.22;;;1.35;;
44728;SDS011;30457;53.590;9.922;2023-04-25T15:52:06;1.95;;;0.85;;
44728;SDS011;30457;53.590;9.922;2023-04-25T15:56:32;6.30;;;1.10;;
44728;SDS011;30457;53.590;9.922;2023-04-25T16:00:58;3.97;;;1.10;;
44728;SDS011;30457;53.590;9.922;2023-04-25T16:05:24;7.47;;;1.08;;
44728;SDS011;30457;53.590;9.922;2023-04-25T16:09:49;4.63;;;0.82;;
44728;SDS011;30457;53.590;9.922;2023-04-25T16:14:15;5.15;;;1.10;;
44728;SDS011;30457;53.590;9.922;2023-04-25T16:18:40;3.83;;;1.05;;
44728;SDS011;30457;53.590;9.922;2023-04-25T16:23:06;3.83;;;0.70;;
44728;SDS011;30457;53.590;9.922;2023-04-25T16:27:33;4.32;;;1.00;;
44728;SDS011;30457;53.590;9.922;2023-04-25T16:31:59;3.90;;;0.93;;
44728;SDS011;30457;53.590;9.922;2023-04-25T16:36:24;5.07;;;1.23;;
44728;SDS011;30457;53.590;9.922;2023-04-25T16:40:50;5.95;;;1.35;;
44728;SDS011;30457;53.590;9.922;2023-04-25T16:45:16;3.03;;;0.90;;
44728;SDS011;30457;53.590;9.922;2023-04-25T16:49:44;3.67;;;0.80;;
44728;SDS011;30457;53.590;9.922;2023-04-25T16:54:09;7.68;;;1.17;;
44728;SDS011;30457;53.590;9.922;2023-04-25T16:58:35;3.80;;;0.95;;
44728;SDS011;30457;53.590;9.922;2023-04-25T17:03:01;2.83;;;0.77;;
44728;SDS011;30457;53.590;9.922;2023-04-25T17:07:27;2.80;;;0.95;;
44728;SDS011;30457;53.590;9.922;2023-04-25T17:11:52;2.30;;;1.13;;
44728;SDS011;30457;53.590;9.922;2023-04-25T17:16:18;5.95;;;1.10;;
44728;SDS011;30457;53.590;9.922;2023-04-25T17:20:47;3.63;;;0.75;;
44728;SDS011;30457;53.590;9.922;2023-04-25T17:25:12;1.20;;;0.57;;
44728;SDS011;30457;53.590;9.922;2023-04-25T17:29:38;1.85;;;0.82;;
44728;SDS011;30457;53.590;9.922;2023-04-25T17:34:03;2.72;;;1.23;;
44728;SDS011;30457;53.590;9.922;2023-04-25T17:38:29;2.92;;;0.60;;
44728;SDS011;30457;53.590;9.922;2023-04-25T17:42:55;3.58;;;0.55;;
44728;SDS011;30457;53.590;9.922;2023-04-25T17:47:21;4.65;;;1.40;;
44728;SDS011;30457;53.590;9.922;2023-04-25T17:51:47;3.15;;;0.70;;
44728;SDS011;30457;53.590;9.922;2023-04-25T17:56:13;6.25;;;1.08;;
44728;SDS011;30457;53.590;9.922;2023-04-25T18:00:38;5.78;;;1.08;;
44728;SDS011;30457;53.590;9.922;2023-04-25T18:05:04;3.55;;;1.20;;
44728;SDS011;30457;53.590;9.922;2023-04-25T18:09:33;4.70;;;0.90;;
44728;SDS011;30457;53.590;9.922;2023-04-25T18:13:59;5.10;;;0.95;;
44728;SDS011;30457;53.590;9.922;2023-04-25T18:18:24;3.47;;;1.15;;
44728;SDS011;30457;53.590;9.922;2023-04-25T18:22:57;2.85;;;1.00;;
44728;SDS011;30457;53.590;9.922;2023-04-25T18:27:23;2.03;;;0.95;;
44728;SDS011;30457;53.590;9.922;2023-04-25T18:31:48;2.30;;;0.73;;
44728;SDS011;30457;53.590;9.922;2023-04-25T18:36:14;2.70;;;0.98;;
44728;SDS011;30457;53.590;9.922;2023-04-25T18:40:39;3.42;;;0.90;;
44728;SDS011;30457;53.590;9.922;2023-04-25T18:45:05;2.70;;;0.65;;
44728;SDS011;30457;53.590;9.922;2023-04-25T18:49:32;2.83;;;1.00;;
44728;SDS011;30457;53.590;9.922;2023-04-25T18:53:58;2.95;;;0.85;;
44728;SDS011;30457;53.590;9.922;2023-04-25T18:58:23;4.72;;;2.35;;
44728;SDS011;30457;53.590;9.922;2023-04-25T19:02:50;3.38;;;1.05;;
44728;SDS011;30457;53.590;9.922;2023-04-25T19:07:15;3.55;;;1.35;;
44728;SDS011;30457;53.590;9.922;2023-04-25T19:11:41;5.18;;;1.00;;
44728;SDS011;30457;53.590;9.922;2023-04-25T19:16:07;4.32;;;0.95;;
44728;SDS011;30457;53.590;9.922;2023-04-25T19:20:32;6.85;;;1.65;;
44728;SDS011;30457;53.590;9.922;2023-04-25T19:24:58;4.97;;;0.95;;
44728;SDS011;30457;53.590;9.922;2023-04-25T19:29:24;7.38;;;2.38;;
44728;SDS011;30457;53.590;9.922;2023-04-25T19:33:49;6.53;;;0.98;;
44728;SDS011;30457;53.590;9.922;2023-04-25T19:38:15;5.05;;;0.80;;
44728;SDS011;30457;53.590;9.922;2023-04-25T19:42:41;4.97;;;0.90;;
44728;SDS011;30457;53.590;9.922;2023-04-25T19:47:07;5.32;;;1.10;;
44728;SDS011;30457;53.590;9.922;2023-04-25T19:51:35;4.30;;;1.10;;
44728;SDS011;30457;53.590;9.922;2023-04-25T19:56:00;3.47;;;0.85;;
44728;SDS011;30457;53.590;9.922;2023-04-25T20:00:26;3.45;;;0.80;;
44728;SDS011;30457;53.590;9.922;2023-04-25T20:04:52;5.38;;;1.10;;
44728;SDS011;30457;53.590;9.922;2023-04-25T20:09:18;4.15;;;0.60;;
44728;SDS011;30457;53.590;9.922;2023-04-25T20:13:46;4.25;;;1.10;;
44728;SDS011;30457;53.590;9.922;2023-04-25T20:18:12;3.13;;;1.35;;
44728;SDS011;30457;53.590;9.922;2023-04-25T20:22:37;3.78;;;1.10;;
44728;SDS011;30457;53.590;9.922;2023-04-25T20:27:04;4.63;;;0.70;;
44728;SDS011;30457;53.590;9.922;2023-04-25T20:31:30;3.17;;;0.88;;
44728;SDS011;30457;53.590;9.922;2023-04-25T20:35:58;3.83;;;0.95;;
44728;SDS011;30457;53.590;9.922;2023-04-25T20:40:23;8.27;;;0.90;;
44728;SDS011;30457;53.590;9.922;2023-04-25T20:44:49;5.03;;;1.02;;
44728;SDS011;30457;53.590;9.922;2023-04-25T20:49:14;5.45;;;1.30;;
44728;SDS011;30457;53.590;9.922;2023-04-25T20:53:40;6.10;;;1.25;;
44728;SDS011;30457;53.590;9.922;2023-04-25T20:58:05;2.97;;;1.00;;
44728;SDS011;30457;53.590;9.922;2023-04-25T21:02:31;7.10;;;0.93;;
44728;SDS011;30457;53.590;9.922;2023-04-25T21:06:57;5.68;;;1.08;;
44728;SDS011;30457;53.590;9.922;2023-04-25T21:11:24;4.78;;;1.13;;
44728;SDS011;30457;53.590;9.922;2023-04-25T21:15:49;3.63;;;0.60;;
44728;SDS011;30457;53.590;9.922;2023-04-25T21:20:16;4.93;;;0.70;;
44728;SDS011;30457;53.590;9.922;2023-04-25T21:24:44;6.75;;;1.33;;
44728;SDS011;30457;53.590;9.922;2023-04-25T21:29:11;1.85;;;0.70;;
44728;SDS011;30457;53.590;9.922;2023-04-25T21:33:37;5.72;;;0.95;;
44728;SDS011;30457;53.590;9.922;2023-04-25T21:38:02;3.75;;;0.68;;
44728;SDS011;30457;53.590;9.922;2023-04-25T21:42:28;2.55;;;0.77;;
44728;SDS011;30457;53.590;9.922;2023-04-25T21:46:54;4.55;;;0.90;;
44728;SDS011;30457;53.590;9.922;2023-04-25T21:51:19;2.63;;;0.93;;
44728;SDS011;30457;53.590;9.922;2023-04-25T21:55:45;5.63;;;1.23;;
44728;SDS011;30457;53.590;9.922;2023-04-25T22:00:11;2.00;;;0.75;;
44728;SDS011;30457;53.590;9.922;2023-04-25T22:04:49;8.35;;;1.48;;
44728;SDS011;30457;53.590;9.922;2023-04-25T22:09:15;2.70;;;0.60;;
44728;SDS011;30457;53.590;9.922;2023-04-25T22:13:40;1.88;;;0.60;;
44728;SDS011;30457;53.590;9.922;2023-04-25T22:18:06;3.15;;;0.63;;
44728;SDS011;30457;53.590;9.922;2023-04-25T22:22:32;1.80;;;0.60;;
44728;SDS011;30457;53.590;9.922;2023-04-25T22:26:58;4.05;;;1.48;;
44728;SDS011;30457;53.590;9.922;2023-04-25T22:31:23;2.25;;;0.70;;
44728;SDS011;30457;53.590;9.922;2023-04-25T22:35:49;2.30;;;0.60;;
44728;SDS011;30457;53.590;9.922;2023-04-25T22:40:14;3.92;;;1.13;;
44728;SDS011;30457;53.590;9.922;2023-04-25T22:44:40;2.03;;;1.25;;
44728;SDS011;30457;53.590;9.922;2023-04-25T22:49:06;4.65;;;0.95;;
44728;SDS011;30457;53.590;9.922;2023-04-25T22:53:32;3.30;;;0.95;;
44728;SDS011;30457;53.590;9.922;2023-04-25T22:58:01;2.28;;;0.50;;
44728;SDS011;30457;53.590;9.922;2023-04-25T23:02:28;4.57;;;1.15;;
44728;SDS011;30457;53.590;9.922;2023-04-25T23:06:53;1.85;;;0.70;;
44728;SDS011;30457;53.590;9.922;2023-04-25T23:11:19;0.85;;;0.50;;
44728;SDS011;30457;53.590;9.922;2023-04-25T23:15:45;6.93;;;1.23;;
44728;SDS011;30457;53.590;9.922;2023-04-25T23:20:11;8.02;;;1.75;;
44728;SDS011;30457;53.590;9.922;2023-04-25T23:24:37;4.82;;;1.05;;
44728;SDS011;30457;53.590;9.922;2023-04-25T23:29:03;3.85;;;0.65;;
44728;SDS011;30457;53.590;9.922;2023-04-25T23:33:29;3.45;;;0.80;;
44728;SDS011;30457;53.590;9.922;2023-04-25T23:37:54;4.85;;;0.82;;
44728;SDS011;30457;53.590;9.922;2023-04-25T23:42:20;3.35;;;1.00;;
44728;SDS011;30457;53.590;9.922;2023-04-25T23:46:45;3.38;;;0.70;;
44728;SDS011;30457;53.590;9.922;2023-04-25T23:51:11;3.30;;;0.98;;
44728;SDS011;30457;53.590;9.922;2023-04-25T23:55:36;6.55;;;1.15;;
